sensor_id;sensor_type;location;lat;lon;timestamp;P1;durP1;ratioP1;P2;durP2;ratioP2
16862;SDS011;52193;48.216;-1.698;2023-05-10T00:01:45;10.05;;;3.88;;
16862;SDS011;52193;48.216;-1.698;2023-05-10T00:04:11;8.70;;;3.72;;
16862;SDS011;52193;48.216;-1.698;2023-05-10T00:06:40;9.07;;;3.28;;
16862;SDS011;52193;48.216;-1.698;2023-05-10T00:09:07;9.63;;;3.22;;
16862;SDS011;52193;48.216;-1.698;2023-05-10T00:11:34;9.48;;;3.75;;
16862;SDS011;52193;48.216;-1.698;2023-05-10T00:14:01;8.52;;;3.13;;
16862;SDS011;52193;48.216;-1.698;2023-05-10T00:16:27;10.70;;;3.30;;
16862;SDS011;52193;48.216;-1.698;2023-05-10T00:18:55;9.63;;;3.58;;
16862;SDS011;52193;48.216;-1.698;2023-05-10T00:21:21;10.70;;;3.50;;
16862;SDS011;52193;48.216;-1.698;2023-05-10T00:23:50;8.63;;;3.22;;
16862;SDS011;52193;48.216;-1.698;2023-05-10T00:26:17;10.65;;;3.22;;
16862;SDS011;52193;48.216;-1.698;2023-05-10T00:28:44;8.75;;;3.03;;
16862;SDS011;52193;48.216;-1.698;2023-05-10T00:31:10;8.10;;;3.38;;
16862;SDS011;52193;48.216;-1.698;2023-05-10T00:33:38;9.65;;;3.45;;
16862;SDS011;52193;48.216;-1.698;2023-05-10T00:36:05;5.85;;;2.75;;
16862;SDS011;52193;48.216;-1.698;2023-05-10T00:38:33;9.05;;;3.53;;
16862;SDS011;52193;48.216;-1.698;2023-05-10T00:41:02;11.82;;;3.67;;
16862;SDS011;52193;48.216;-1.698;2023-05-10T00:43:29;8.52;;;3.05;;
16862;SDS011;52193;48.216;-1.698;2023-05-10T00:45:56;6.35;;;3.05;;
16862;SDS011;52193;48.216;-1.698;2023-05-10T00:48:23;8.32;;;3.35;;
16862;SDS011;52193;48.216;-1.698;2023-05-10T00:50:50;9.13;;;3.28;;
16862;SDS011;52193;48.216;-1.698;2023-05-10T00:53:17;6.63;;;3.20;;
16862;SDS011;52193;48.216;-1.698;2023-05-10T00:55:44;10.20;;;3.58;;
16862;SDS011;52193;48.216;-1.698;2023-05-10T00:58:13;8.85;;;3.65;;
16862;SDS011;52193;48.216;-1.698;2023-05-10T01:00:41;7.93;;;3.13;;
16862;SDS011;52193;48.216;-1.698;2023-05-10T01:03:09;9.77;;;3.47;;
16862;SDS011;52193;48.216;-1.698;2023-05-10T01:05:36;12.30;;;3.72;;
16862;SDS011;52193;48.216;-1.698;2023-05-10T01:08:04;7.57;;;3.38;;
16862;SDS011;52193;48.216;-1.698;2023-05-10T01:10:31;8.20;;;3.35;;
16862;SDS011;52193;48.216;-1.698;2023-05-10T01:12:58;7.30;;;2.92;;
16862;SDS011;52193;48.216;-1.698;2023-05-10T01:15:27;8.13;;;3.33;;
16862;SDS011;52193;48.216;-1.698;2023-05-10T01:17:54;11.23;;;3.28;;
16862;SDS011;52193;48.216;-1.698;2023-05-10T01:20:22;7.78;;;3.38;;
16862;SDS011;52193;48.216;-1.698;2023-05-10T01:22:57;9.48;;;3.58;;
16862;SDS011;52193;48.216;-1.698;2023-05-10T01:25:46;10.07;;;3.58;;
16862;SDS011;52193;48.216;-1.698;2023-05-10T01:28:39;6.47;;;2.70;;
16862;SDS011;52193;48.216;-1.698;2023-05-10T01:34:21;9.32;;;3.03;;
16862;SDS011;52193;48.216;-1.698;2023-05-10T01:36:55;5.93;;;2.80;;
16862;SDS011;52193;48.216;-1.698;2023-05-10T01:39:30;10.98;;;3.78;;
16862;SDS011;52193;48.216;-1.698;2023-05-10T01:42:06;8.43;;;3.28;;
16862;SDS011;52193;48.216;-1.698;2023-05-10T01:44:37;6.50;;;2.95;;
16862;SDS011;52193;48.216;-1.698;2023-05-10T01:47:10;9.07;;;3.38;;
16862;SDS011;52193;48.216;-1.698;2023-05-10T01:49:41;6.57;;;2.92;;
16862;SDS011;52193;48.216;-1.698;2023-05-10T01:52:12;6.82;;;3.20;;
16862;SDS011;52193;48.216;-1.698;2023-05-10T01:54:50;9.63;;;3.25;;
16862;SDS011;52193;48.216;-1.698;2023-05-10T01:57:21;10.15;;;3.70;;
16862;SDS011;52193;48.216;-1.698;2023-05-10T01:59:51;7.13;;;3.72;;
16862;SDS011;52193;48.216;-1.698;2023-05-10T02:02:20;8.70;;;3.42;;
16862;SDS011;52193;48.216;-1.698;2023-05-10T02:04:50;8.90;;;3.58;;
16862;SDS011;52193;48.216;-1.698;2023-05-10T02:07:18;12.77;;;3.33;;
16862;SDS011;52193;48.216;-1.698;2023-05-10T02:09:46;7.43;;;3.25;;
16862;SDS011;52193;48.216;-1.698;2023-05-10T02:12:14;12.95;;;3.90;;
16862;SDS011;52193;48.216;-1.698;2023-05-10T02:14:42;12.27;;;3.97;;
16862;SDS011;52193;48.216;-1.698;2023-05-10T02:17:10;11.68;;;3.63;;
16862;SDS011;52193;48.216;-1.698;2023-05-10T02:19:40;9.85;;;3.63;;
16862;SDS011;52193;48.216;-1.698;2023-05-10T02:22:09;9.18;;;3.20;;
16862;SDS011;52193;48.216;-1.698;2023-05-10T02:24:36;6.65;;;3.20;;
16862;SDS011;52193;48.216;-1.698;2023-05-10T02:27:04;11.43;;;4.28;;
16862;SDS011;52193;48.216;-1.698;2023-05-10T02:29:34;9.07;;;3.80;;
16862;SDS011;52193;48.216;-1.698;2023-05-10T02:32:02;9.77;;;3.88;;
16862;SDS011;52193;48.216;-1.698;2023-05-10T02:34:30;12.75;;;3.72;;
16862;SDS011;52193;48.216;-1.698;2023-05-10T02:36:59;9.68;;;3.40;;
16862;SDS011;52193;48.216;-1.698;2023-05-10T02:39:28;8.40;;;3.35;;
16862;SDS011;52193;48.216;-1.698;2023-05-10T02:41:57;11.90;;;4.18;;
16862;SDS011;52193;48.216;-1.698;2023-05-10T02:44:26;12.30;;;3.65;;
16862;SDS011;52193;48.216;-1.698;2023-05-10T02:46:56;10.60;;;4.03;;
16862;SDS011;52193;48.216;-1.698;2023-05-10T02:49:23;11.90;;;4.38;;
16862;SDS011;52193;48.216;-1.698;2023-05-10T02:51:51;12.68;;;4.65;;
16862;SDS011;52193;48.216;-1.698;2023-05-10T02:54:27;9.45;;;4.22;;
16862;SDS011;52193;48.216;-1.698;2023-05-10T02:56:57;9.88;;;4.10;;
16862;SDS011;52193;48.216;-1.698;2023-05-10T02:59:25;10.18;;;4.40;;
16862;SDS011;52193;48.216;-1.698;2023-05-10T03:01:53;12.85;;;4.30;;
16862;SDS011;52193;48.216;-1.698;2023-05-10T03:04:20;9.32;;;3.92;;
16862;SDS011;52193;48.216;-1.698;2023-05-10T03:06:47;10.15;;;4.57;;
16862;SDS011;52193;48.216;-1.698;2023-05-10T03:09:14;11.45;;;4.00;;
16862;SDS011;52193;48.216;-1.698;2023-05-10T03:11:46;12.73;;;4.25;;
16862;SDS011;52193;48.216;-1.698;2023-05-10T03:14:21;14.85;;;4.53;;
16862;SDS011;52193;48.216;-1.698;2023-05-10T03:17:00;10.27;;;3.60;;
16862;SDS011;52193;48.216;-1.698;2023-05-10T03:19:35;12.07;;;4.32;;
16862;SDS011;52193;48.216;-1.698;2023-05-10T03:22:10;12.80;;;4.60;;
16862;SDS011;52193;48.216;-1.698;2023-05-10T03:24:39;11.73;;;4.10;;
16862;SDS011;52193;48.216;-1.698;2023-05-10T03:27:08;14.18;;;4.20;;
16862;SDS011;52193;48.216;-1.698;2023-05-10T03:29:36;11.63;;;4.18;;
16862;SDS011;52193;48.216;-1.698;2023-05-10T03:32:05;12.18;;;4.35;;
16862;SDS011;52193;48.216;-1.698;2023-05-10T03:34:32;12.68;;;4.38;;
16862;SDS011;52193;48.216;-1.698;2023-05-10T03:36:59;10.68;;;4.38;;
16862;SDS011;52193;48.216;-1.698;2023-05-10T03:39:26;11.95;;;4.60;;
16862;SDS011;52193;48.216;-1.698;2023-05-10T03:41:53;11.18;;;4.30;;
16862;SDS011;52193;48.216;-1.698;2023-05-10T03:44:21;10.05;;;3.38;;
16862;SDS011;52193;48.216;-1.698;2023-05-10T03:46:48;10.48;;;3.70;;
16862;SDS011;52193;48.216;-1.698;2023-05-10T03:49:15;12.43;;;4.43;;
16862;SDS011;52193;48.216;-1.698;2023-05-10T03:51:42;12.55;;;4.20;;
16862;SDS011;52193;48.216;-1.698;2023-05-10T03:54:08;8.60;;;3.88;;
16862;SDS011;52193;48.216;-1.698;2023-05-10T03:56:35;8.23;;;3.97;;
16862;SDS011;52193;48.216;-1.698;2023-05-10T03:59:02;10.10;;;3.90;;
16862;SDS011;52193;48.216;-1.698;2023-05-10T04:01:33;13.40;;;4.78;;
16862;SDS011;52193;48.216;-1.698;2023-05-10T04:04:00;14.38;;;4.90;;
16862;SDS011;52193;48.216;-1.698;2023-05-10T04:06:27;13.10;;;4.10;;
16862;SDS011;52193;48.216;-1.698;2023-05-10T04:08:54;12.82;;;4.22;;
16862;SDS011;52193;48.216;-1.698;2023-05-10T04:11:21;12.25;;;4.22;;
16862;SDS011;52193;48.216;-1.698;2023-05-10T04:13:49;8.23;;;3.90;;
16862;SDS011;52193;48.216;-1.698;2023-05-10T04:16:16;8.50;;;3.67;;
16862;SDS011;52193;48.216;-1.698;2023-05-10T04:18:44;12.70;;;4.70;;
16862;SDS011;52193;48.216;-1.698;2023-05-10T04:21:11;14.25;;;4.55;;
16862;SDS011;52193;48.216;-1.698;2023-05-10T04:23:39;11.18;;;4.07;;
16862;SDS011;52193;48.216;-1.698;2023-05-10T04:26:06;9.50;;;3.58;;
16862;SDS011;52193;48.216;-1.698;2023-05-10T04:28:33;9.43;;;4.25;;
16862;SDS011;52193;48.216;-1.698;2023-05-10T04:31:00;10.73;;;4.45;;
16862;SDS011;52193;48.216;-1.698;2023-05-10T04:33:28;9.82;;;3.60;;
16862;SDS011;52193;48.216;-1.698;2023-05-10T04:35:57;8.32;;;3.53;;
16862;SDS011;52193;48.216;-1.698;2023-05-10T04:38:24;9.50;;;3.80;;
16862;SDS011;52193;48.216;-1.698;2023-05-10T04:40:52;9.85;;;3.83;;
16862;SDS011;52193;48.216;-1.698;2023-05-10T04:43:19;10.27;;;3.70;;
16862;SDS011;52193;48.216;-1.698;2023-05-10T04:45:46;12.80;;;4.20;;
16862;SDS011;52193;48.216;-1.698;2023-05-10T04:48:13;7.25;;;3.60;;
16862;SDS011;52193;48.216;-1.698;2023-05-10T04:50:40;8.73;;;3.60;;
16862;SDS011;52193;48.216;-1.698;2023-05-10T04:53:08;8.40;;;3.88;;
16862;SDS011;52193;48.216;-1.698;2023-05-10T04:55:35;9.63;;;3.55;;
16862;SDS011;52193;48.216;-1.698;2023-05-10T04:58:02;11.68;;;4.47;;
16862;SDS011;52193;48.216;-1.698;2023-05-10T05:00:29;9.13;;;4.28;;
16862;SDS011;52193;48.216;-1.698;2023-05-10T05:02:56;9.48;;;3.85;;
16862;SDS011;52193;48.216;-1.698;2023-05-10T05:05:23;9.48;;;4.03;;
16862;SDS011;52193;48.216;-1.698;2023-05-10T05:07:50;9.05;;;3.40;;
16862;SDS011;52193;48.216;-1.698;2023-05-10T05:10:18;7.47;;;3.83;;
16862;SDS011;52193;48.216;-1.698;2023-05-10T05:12:45;8.52;;;3.58;;
16862;SDS011;52193;48.216;-1.698;2023-05-10T05:15:12;11.35;;;3.80;;
16862;SDS011;52193;48.216;-1.698;2023-05-10T05:17:41;8.43;;;3.95;;
16862;SDS011;52193;48.216;-1.698;2023-05-10T05:20:08;8.10;;;4.07;;
16862;SDS011;52193;48.216;-1.698;2023-05-10T05:22:36;6.03;;;3.53;;
16862;SDS011;52193;48.216;-1.698;2023-05-10T05:25:04;7.72;;;3.40;;
16862;SDS011;52193;48.216;-1.698;2023-05-10T05:27:33;6.75;;;3.47;;
16862;SDS011;52193;48.216;-1.698;2023-05-10T05:30:00;9.35;;;4.03;;
16862;SDS011;52193;48.216;-1.698;2023-05-10T05:32:27;10.70;;;4.05;;
16862;SDS011;52193;48.216;-1.698;2023-05-10T05:34:54;9.38;;;4.18;;
16862;SDS011;52193;48.216;-1.698;2023-05-10T05:37:21;9.95;;;4.18;;
16862;SDS011;52193;48.216;-1.698;2023-05-10T05:39:49;9.02;;;4.18;;
16862;SDS011;52193;48.216;-1.698;2023-05-10T05:42:16;9.00;;;3.85;;
16862;SDS011;52193;48.216;-1.698;2023-05-10T05:44:45;9.13;;;4.00;;
16862;SDS011;52193;48.216;-1.698;2023-05-10T05:47:12;9.20;;;4.03;;
16862;SDS011;52193;48.216;-1.698;2023-05-10T05:49:39;6.35;;;3.10;;
16862;SDS011;52193;48.216;-1.698;2023-05-10T05:52:06;9.07;;;4.05;;
16862;SDS011;52193;48.216;-1.698;2023-05-10T05:54:32;12.10;;;4.70;;
16862;SDS011;52193;48.216;-1.698;2023-05-10T05:57:00;10.70;;;4.70;;
16862;SDS011;52193;48.216;-1.698;2023-05-10T05:59:27;7.75;;;4.40;;
16862;SDS011;52193;48.216;-1.698;2023-05-10T06:01:55;8.90;;;4.85;;
16862;SDS011;52193;48.216;-1.698;2023-05-10T06:04:22;13.63;;;5.20;;
16862;SDS011;52193;48.216;-1.698;2023-05-10T06:06:49;10.38;;;4.85;;
16862;SDS011;52193;48.216;-1.698;2023-05-10T06:09:16;12.52;;;5.60;;
16862;SDS011;52193;48.216;-1.698;2023-05-10T06:11:43;12.85;;;5.43;;
16862;SDS011;52193;48.216;-1.698;2023-05-10T06:14:10;10.63;;;4.93;;
16862;SDS011;52193;48.216;-1.698;2023-05-10T06:16:37;13.52;;;5.90;;
16862;SDS011;52193;48.216;-1.698;2023-05-10T06:19:05;12.13;;;5.60;;
16862;SDS011;52193;48.216;-1.698;2023-05-10T06:21:32;10.27;;;5.40;;
16862;SDS011;52193;48.216;-1.698;2023-05-10T06:23:59;12.75;;;5.68;;
16862;SDS011;52193;48.216;-1.698;2023-05-10T06:26:27;12.48;;;5.28;;
16862;SDS011;52193;48.216;-1.698;2023-05-10T06:28:54;15.45;;;6.30;;
16862;SDS011;52193;48.216;-1.698;2023-05-10T06:31:21;8.35;;;4.88;;
16862;SDS011;52193;48.216;-1.698;2023-05-10T06:33:48;10.90;;;5.57;;
16862;SDS011;52193;48.216;-1.698;2023-05-10T06:36:16;8.70;;;5.43;;
16862;SDS011;52193;48.216;-1.698;2023-05-10T06:38:43;12.20;;;5.72;;
16862;SDS011;52193;48.216;-1.698;2023-05-10T06:41:10;11.05;;;5.82;;
16862;SDS011;52193;48.216;-1.698;2023-05-10T06:43:37;12.60;;;5.57;;
16862;SDS011;52193;48.216;-1.698;2023-05-10T06:46:06;10.82;;;5.50;;
16862;SDS011;52193;48.216;-1.698;2023-05-10T06:48:33;8.73;;;5.35;;
16862;SDS011;52193;48.216;-1.698;2023-05-10T06:51:00;10.13;;;6.13;;
16862;SDS011;52193;48.216;-1.698;2023-05-10T06:53:28;11.43;;;6.05;;
16862;SDS011;52193;48.216;-1.698;2023-05-10T06:55:55;11.43;;;5.80;;
16862;SDS011;52193;48.216;-1.698;2023-05-10T06:58:22;10.15;;;5.63;;
16862;SDS011;52193;48.216;-1.698;2023-05-10T07:00:49;9.35;;;5.57;;
16862;SDS011;52193;48.216;-1.698;2023-05-10T07:03:16;13.15;;;6.20;;
16862;SDS011;52193;48.216;-1.698;2023-05-10T07:05:43;14.27;;;6.97;;
16862;SDS011;52193;48.216;-1.698;2023-05-10T07:08:09;10.40;;;5.82;;
16862;SDS011;52193;48.216;-1.698;2023-05-10T07:10:38;10.27;;;6.03;;
16862;SDS011;52193;48.216;-1.698;2023-05-10T07:13:05;10.57;;;6.28;;
16862;SDS011;52193;48.216;-1.698;2023-05-10T07:15:32;13.20;;;6.38;;
16862;SDS011;52193;48.216;-1.698;2023-05-10T07:17:58;15.98;;;6.93;;
16862;SDS011;52193;48.216;-1.698;2023-05-10T07:20:25;13.60;;;6.28;;
16862;SDS011;52193;48.216;-1.698;2023-05-10T07:22:52;16.10;;;6.70;;
16862;SDS011;52193;48.216;-1.698;2023-05-10T07:25:19;14.52;;;6.38;;
16862;SDS011;52193;48.216;-1.698;2023-05-10T07:27:48;13.05;;;5.93;;
16862;SDS011;52193;48.216;-1.698;2023-05-10T07:30:16;13.20;;;6.18;;
16862;SDS011;52193;48.216;-1.698;2023-05-10T07:32:42;8.90;;;6.13;;
16862;SDS011;52193;48.216;-1.698;2023-05-10T07:35:10;12.48;;;6.50;;
16862;SDS011;52193;48.216;-1.698;2023-05-10T07:37:36;16.50;;;7.25;;
16862;SDS011;52193;48.216;-1.698;2023-05-10T07:40:04;15.50;;;6.53;;
16862;SDS011;52193;48.216;-1.698;2023-05-10T07:42:31;12.90;;;6.15;;
16862;SDS011;52193;48.216;-1.698;2023-05-10T07:45:00;11.70;;;6.30;;
16862;SDS011;52193;48.216;-1.698;2023-05-10T07:47:27;12.20;;;6.80;;
16862;SDS011;52193;48.216;-1.698;2023-05-10T07:49:54;13.02;;;6.88;;
16862;SDS011;52193;48.216;-1.698;2023-05-10T07:52:20;11.38;;;6.78;;
16862;SDS011;52193;48.216;-1.698;2023-05-10T07:54:47;11.10;;;6.93;;
16862;SDS011;52193;48.216;-1.698;2023-05-10T07:57:15;9.23;;;7.10;;
16862;SDS011;52193;48.216;-1.698;2023-05-10T07:59:42;10.30;;;7.32;;
16862;SDS011;52193;48.216;-1.698;2023-05-10T08:02:12;8.75;;;6.93;;
16862;SDS011;52193;48.216;-1.698;2023-05-10T08:04:39;12.02;;;7.82;;
16862;SDS011;52193;48.216;-1.698;2023-05-10T08:07:05;8.63;;;7.00;;
16862;SDS011;52193;48.216;-1.698;2023-05-10T08:09:32;8.40;;;7.20;;
16862;SDS011;52193;48.216;-1.698;2023-05-10T08:11:59;10.88;;;7.38;;
16862;SDS011;52193;48.216;-1.698;2023-05-10T08:14:27;10.95;;;7.03;;
16862;SDS011;52193;48.216;-1.698;2023-05-10T08:16:55;11.98;;;7.30;;
16862;SDS011;52193;48.216;-1.698;2023-05-10T08:19:23;10.80;;;7.05;;
16862;SDS011;52193;48.216;-1.698;2023-05-10T08:21:50;9.05;;;6.80;;
16862;SDS011;52193;48.216;-1.698;2023-05-10T08:24:18;11.32;;;7.15;;
16862;SDS011;52193;48.216;-1.698;2023-05-10T08:26:45;11.20;;;7.32;;
16862;SDS011;52193;48.216;-1.698;2023-05-10T08:29:12;11.18;;;7.25;;
16862;SDS011;52193;48.216;-1.698;2023-05-10T08:31:39;7.20;;;6.40;;
16862;SDS011;52193;48.216;-1.698;2023-05-10T08:34:07;10.77;;;6.97;;
16862;SDS011;52193;48.216;-1.698;2023-05-10T08:36:35;11.82;;;7.57;;
16862;SDS011;52193;48.216;-1.698;2023-05-10T08:39:02;13.93;;;7.63;;
16862;SDS011;52193;48.216;-1.698;2023-05-10T08:41:29;11.63;;;7.35;;
16862;SDS011;52193;48.216;-1.698;2023-05-10T08:43:59;9.32;;;6.82;;
16862;SDS011;52193;48.216;-1.698;2023-05-10T08:46:30;13.23;;;7.63;;
16862;SDS011;52193;48.216;-1.698;2023-05-10T08:49:00;8.82;;;7.20;;
16862;SDS011;52193;48.216;-1.698;2023-05-10T08:51:29;12.57;;;7.63;;
16862;SDS011;52193;48.216;-1.698;2023-05-10T08:54:00;8.65;;;6.85;;
16862;SDS011;52193;48.216;-1.698;2023-05-10T08:56:28;10.02;;;7.20;;
16862;SDS011;52193;48.216;-1.698;2023-05-10T08:58:55;10.65;;;6.97;;
16862;SDS011;52193;48.216;-1.698;2023-05-10T09:01:22;9.30;;;7.00;;
16862;SDS011;52193;48.216;-1.698;2023-05-10T09:03:50;8.20;;;6.43;;
16862;SDS011;52193;48.216;-1.698;2023-05-10T09:06:17;13.13;;;6.97;;
16862;SDS011;52193;48.216;-1.698;2023-05-10T09:08:44;10.02;;;6.07;;
16862;SDS011;52193;48.216;-1.698;2023-05-10T09:11:14;7.95;;;6.00;;
16862;SDS011;52193;48.216;-1.698;2023-05-10T09:13:41;9.70;;;6.45;;
16862;SDS011;52193;48.216;-1.698;2023-05-10T09:16:08;12.93;;;6.90;;
16862;SDS011;52193;48.216;-1.698;2023-05-10T09:18:35;10.40;;;6.32;;
16862;SDS011;52193;48.216;-1.698;2023-05-10T09:21:02;8.63;;;6.50;;
16862;SDS011;52193;48.216;-1.698;2023-05-10T09:23:30;7.82;;;5.72;;
16862;SDS011;52193;48.216;-1.698;2023-05-10T09:26:03;7.35;;;5.80;;
16862;SDS011;52193;48.216;-1.698;2023-05-10T09:28:33;9.57;;;6.25;;
16862;SDS011;52193;48.216;-1.698;2023-05-10T09:31:00;9.57;;;6.35;;
16862;SDS011;52193;48.216;-1.698;2023-05-10T09:33:27;8.90;;;6.00;;
16862;SDS011;52193;48.216;-1.698;2023-05-10T09:35:54;11.45;;;8.82;;
16862;SDS011;52193;48.216;-1.698;2023-05-10T09:38:21;8.35;;;6.15;;
16862;SDS011;52193;48.216;-1.698;2023-05-10T09:40:51;12.63;;;6.07;;
16862;SDS011;52193;48.216;-1.698;2023-05-10T09:43:20;6.13;;;5.35;;
16862;SDS011;52193;48.216;-1.698;2023-05-10T09:45:49;9.13;;;5.57;;
16862;SDS011;52193;48.216;-1.698;2023-05-10T09:48:16;5.53;;;4.97;;
16862;SDS011;52193;48.216;-1.698;2023-05-10T09:50:42;9.68;;;5.47;;
16862;SDS011;52193;48.216;-1.698;2023-05-10T09:53:09;8.43;;;5.30;;
16862;SDS011;52193;48.216;-1.698;2023-05-10T09:55:42;9.00;;;5.60;;
16862;SDS011;52193;48.216;-1.698;2023-05-10T09:58:11;8.43;;;5.43;;
16862;SDS011;52193;48.216;-1.698;2023-05-10T10:00:39;9.55;;;5.35;;
16862;SDS011;52193;48.216;-1.698;2023-05-10T10:03:11;4.78;;;4.20;;
16862;SDS011;52193;48.216;-1.698;2023-05-10T10:05:39;5.72;;;4.43;;
16862;SDS011;52193;48.216;-1.698;2023-05-10T10:08:07;6.45;;;4.85;;
16862;SDS011;52193;48.216;-1.698;2023-05-10T10:10:35;8.95;;;5.05;;
16862;SDS011;52193;48.216;-1.698;2023-05-10T10:13:03;7.38;;;5.25;;
16862;SDS011;52193;48.216;-1.698;2023-05-10T10:15:30;5.57;;;4.30;;
16862;SDS011;52193;48.216;-1.698;2023-05-10T10:17:59;5.57;;;4.70;;
16862;SDS011;52193;48.216;-1.698;2023-05-10T10:20:29;4.90;;;4.40;;
16862;SDS011;52193;48.216;-1.698;2023-05-10T10:22:56;4.07;;;3.78;;
16862;SDS011;52193;48.216;-1.698;2023-05-10T10:25:23;5.88;;;3.97;;
16862;SDS011;52193;48.216;-1.698;2023-05-10T10:27:56;5.50;;;3.85;;
16862;SDS011;52193;48.216;-1.698;2023-05-10T10:30:35;3.63;;;3.33;;
16862;SDS011;52193;48.216;-1.698;2023-05-10T10:33:13;4.30;;;3.65;;
16862;SDS011;52193;48.216;-1.698;2023-05-10T10:35:58;6.75;;;3.60;;
16862;SDS011;52193;48.216;-1.698;2023-05-10T10:38:35;4.10;;;3.50;;
16862;SDS011;52193;48.216;-1.698;2023-05-10T10:41:10;4.47;;;4.07;;
16862;SDS011;52193;48.216;-1.698;2023-05-10T10:46:58;4.50;;;4.10;;
16862;SDS011;52193;48.216;-1.698;2023-05-10T10:49:27;5.07;;;4.78;;
16862;SDS011;52193;48.216;-1.698;2023-05-10T10:52:20;6.30;;;5.45;;
16862;SDS011;52193;48.216;-1.698;2023-05-10T10:54:49;5.40;;;4.97;;
16862;SDS011;52193;48.216;-1.698;2023-05-10T10:57:18;4.80;;;4.50;;
16862;SDS011;52193;48.216;-1.698;2023-05-10T10:59:46;4.60;;;4.40;;
16862;SDS011;52193;48.216;-1.698;2023-05-10T11:02:32;5.15;;;4.80;;
16862;SDS011;52193;48.216;-1.698;2023-05-10T11:05:00;5.15;;;4.75;;
16862;SDS011;52193;48.216;-1.698;2023-05-10T11:08:13;4.70;;;4.47;;
16862;SDS011;52193;48.216;-1.698;2023-05-10T11:13:33;4.97;;;4.68;;
16862;SDS011;52193;48.216;-1.698;2023-05-10T11:16:10;5.13;;;4.85;;
16862;SDS011;52193;48.216;-1.698;2023-05-10T11:18:39;5.97;;;5.47;;
16862;SDS011;52193;48.216;-1.698;2023-05-10T11:21:08;5.20;;;4.80;;
16862;SDS011;52193;48.216;-1.698;2023-05-10T11:26:22;5.40;;;5.10;;
16862;SDS011;52193;48.216;-1.698;2023-05-10T11:28:51;6.40;;;5.90;;
16862;SDS011;52193;48.216;-1.698;2023-05-10T11:31:19;5.45;;;5.15;;
16862;SDS011;52193;48.216;-1.698;2023-05-10T11:33:47;5.97;;;5.47;;
16862;SDS011;52193;48.216;-1.698;2023-05-10T11:36:16;5.22;;;4.82;;
16862;SDS011;52193;48.216;-1.698;2023-05-10T11:38:44;4.90;;;4.60;;
16862;SDS011;52193;48.216;-1.698;2023-05-10T11:41:13;5.10;;;4.80;;
16862;SDS011;52193;48.216;-1.698;2023-05-10T11:43:43;5.85;;;5.10;;
16862;SDS011;52193;48.216;-1.698;2023-05-10T11:46:13;5.63;;;5.22;;
16862;SDS011;52193;48.216;-1.698;2023-05-10T11:48:41;4.47;;;4.28;;
16862;SDS011;52193;48.216;-1.698;2023-05-10T11:51:08;4.82;;;4.30;;
16862;SDS011;52193;48.216;-1.698;2023-05-10T11:53:36;5.45;;;4.95;;
16862;SDS011;52193;48.216;-1.698;2023-05-10T11:56:04;4.90;;;4.60;;
16862;SDS011;52193;48.216;-1.698;2023-05-10T11:58:33;4.97;;;4.68;;
16862;SDS011;52193;48.216;-1.698;2023-05-10T12:01:01;4.55;;;4.25;;
16862;SDS011;52193;48.216;-1.698;2023-05-10T12:03:29;4.47;;;4.18;;
16862;SDS011;52193;48.216;-1.698;2023-05-10T12:05:56;4.72;;;4.10;;
16862;SDS011;52193;48.216;-1.698;2023-05-10T12:08:24;4.53;;;3.65;;
16862;SDS011;52193;48.216;-1.698;2023-05-10T12:10:53;4.35;;;3.95;;
16862;SDS011;52193;48.216;-1.698;2023-05-10T12:13:29;4.53;;;4.10;;
16862;SDS011;52193;48.216;-1.698;2023-05-10T12:15:58;4.43;;;4.07;;
16862;SDS011;52193;48.216;-1.698;2023-05-10T12:18:25;4.18;;;3.78;;
16862;SDS011;52193;48.216;-1.698;2023-05-10T12:20:52;3.70;;;3.40;;
16862;SDS011;52193;48.216;-1.698;2023-05-10T12:23:20;4.70;;;3.30;;
16862;SDS011;52193;48.216;-1.698;2023-05-10T12:25:47;3.25;;;2.95;;
16862;SDS011;52193;48.216;-1.698;2023-05-10T12:28:14;3.97;;;3.00;;
16862;SDS011;52193;48.216;-1.698;2023-05-10T12:30:41;3.20;;;2.90;;
16862;SDS011;52193;48.216;-1.698;2023-05-10T12:33:09;3.10;;;2.90;;
16862;SDS011;52193;48.216;-1.698;2023-05-10T12:35:43;3.58;;;3.25;;
16862;SDS011;52193;48.216;-1.698;2023-05-10T12:40:58;3.10;;;2.40;;
16862;SDS011;52193;48.216;-1.698;2023-05-10T12:43:26;2.70;;;2.28;;
16862;SDS011;52193;48.216;-1.698;2023-05-10T12:45:53;4.20;;;2.47;;
16862;SDS011;52193;48.216;-1.698;2023-05-10T12:48:22;3.28;;;2.15;;
16862;SDS011;52193;48.216;-1.698;2023-05-10T12:50:49;3.22;;;2.42;;
16862;SDS011;52193;48.216;-1.698;2023-05-10T12:53:16;4.10;;;2.47;;
16862;SDS011;52193;48.216;-1.698;2023-05-10T12:55:43;2.70;;;2.33;;
16862;SDS011;52193;48.216;-1.698;2023-05-10T12:58:10;3.15;;;2.70;;
16862;SDS011;52193;48.216;-1.698;2023-05-10T13:00:37;2.90;;;2.40;;
16862;SDS011;52193;48.216;-1.698;2023-05-10T13:03:04;3.15;;;2.30;;
16862;SDS011;52193;48.216;-1.698;2023-05-10T13:05:33;3.05;;;2.33;;
16862;SDS011;52193;48.216;-1.698;2023-05-10T13:08:00;5.70;;;2.47;;
16862;SDS011;52193;48.216;-1.698;2023-05-10T13:10:28;2.83;;;2.03;;
16862;SDS011;52193;48.216;-1.698;2023-05-10T13:12:56;4.72;;;2.83;;
16862;SDS011;52193;48.216;-1.698;2023-05-10T13:15:24;3.53;;;2.90;;
16862;SDS011;52193;48.216;-1.698;2023-05-10T13:17:52;4.03;;;2.60;;
16862;SDS011;52193;48.216;-1.698;2023-05-10T13:20:19;4.75;;;3.08;;
16862;SDS011;52193;48.216;-1.698;2023-05-10T13:22:48;5.68;;;2.65;;
16862;SDS011;52193;48.216;-1.698;2023-05-10T13:25:16;5.00;;;2.95;;
16862;SDS011;52193;48.216;-1.698;2023-05-10T13:27:43;4.85;;;2.47;;
16862;SDS011;52193;48.216;-1.698;2023-05-10T13:30:10;3.88;;;2.80;;
16862;SDS011;52193;48.216;-1.698;2023-05-10T13:32:37;3.95;;;2.30;;
16862;SDS011;52193;48.216;-1.698;2023-05-10T13:35:05;2.50;;;2.25;;
16862;SDS011;52193;48.216;-1.698;2023-05-10T13:37:32;5.07;;;2.50;;
16862;SDS011;52193;48.216;-1.698;2023-05-10T13:40:04;4.80;;;2.50;;
16862;SDS011;52193;48.216;-1.698;2023-05-10T13:42:31;3.92;;;2.60;;
16862;SDS011;52193;48.216;-1.698;2023-05-10T13:44:59;3.70;;;2.10;;
16862;SDS011;52193;48.216;-1.698;2023-05-10T13:47:26;3.17;;;1.95;;
16862;SDS011;52193;48.216;-1.698;2023-05-10T13:49:53;1.98;;;1.50;;
16862;SDS011;52193;48.216;-1.698;2023-05-10T13:52:20;3.20;;;1.90;;
16862;SDS011;52193;48.216;-1.698;2023-05-10T13:54:47;3.47;;;1.95;;
16862;SDS011;52193;48.216;-1.698;2023-05-10T13:57:15;2.45;;;1.60;;
16862;SDS011;52193;48.216;-1.698;2023-05-10T13:59:42;3.45;;;2.03;;
16862;SDS011;52193;48.216;-1.698;2023-05-10T14:02:09;4.90;;;2.30;;
16862;SDS011;52193;48.216;-1.698;2023-05-10T14:04:38;3.75;;;3.10;;
16862;SDS011;52193;48.216;-1.698;2023-05-10T14:07:05;2.70;;;2.40;;
16862;SDS011;52193;48.216;-1.698;2023-05-10T14:09:31;2.90;;;2.50;;
16862;SDS011;52193;48.216;-1.698;2023-05-10T14:11:58;3.88;;;2.42;;
16862;SDS011;52193;48.216;-1.698;2023-05-10T14:14:27;3.17;;;2.40;;
16862;SDS011;52193;48.216;-1.698;2023-05-10T14:16:54;3.92;;;2.00;;
16862;SDS011;52193;48.216;-1.698;2023-05-10T14:19:21;6.18;;;2.60;;
16862;SDS011;52193;48.216;-1.698;2023-05-10T14:21:48;3.95;;;2.20;;
16862;SDS011;52193;48.216;-1.698;2023-05-10T14:24:16;4.22;;;2.55;;
16862;SDS011;52193;48.216;-1.698;2023-05-10T14:26:43;3.47;;;2.08;;
16862;SDS011;52193;48.216;-1.698;2023-05-10T14:29:10;5.30;;;2.28;;
16862;SDS011;52193;48.216;-1.698;2023-05-10T14:31:39;2.92;;;1.85;;
16862;SDS011;52193;48.216;-1.698;2023-05-10T14:34:06;2.67;;;1.95;;
16862;SDS011;52193;48.216;-1.698;2023-05-10T14:36:33;3.35;;;2.20;;
16862;SDS011;52193;48.216;-1.698;2023-05-10T14:39:00;5.07;;;2.10;;
16862;SDS011;52193;48.216;-1.698;2023-05-10T14:41:27;6.03;;;2.65;;
16862;SDS011;52193;48.216;-1.698;2023-05-10T14:43:55;3.72;;;2.10;;
16862;SDS011;52193;48.216;-1.698;2023-05-10T14:46:22;2.83;;;2.00;;
16862;SDS011;52193;48.216;-1.698;2023-05-10T14:48:50;4.78;;;2.17;;
16862;SDS011;52193;48.216;-1.698;2023-05-10T14:51:17;5.80;;;2.50;;
16862;SDS011;52193;48.216;-1.698;2023-05-10T14:53:46;5.13;;;1.98;;